• Join FlightAware (Why Join?)
  • Login
  • US Flag 
11:42AM EDT


 

Airport Tracker/Info


-or-


 

Live Flight TrackerFlight Track Log ✈ DAL1979 ✈ 20-May-2013 ✈ KMCO - KMSP

Flight Track Log - Related Links

Times and Time Zones

All times are in EDT time to prevent confusion due to time zone crossing. See the DAL1979 flight status page for this flight to view local times or setup timezone preferences in your user account.

Time Position Orientation Groundspeed Altitude Reporting Facility
EDT Latitude Longitude Course Direction KTS MPH feet Rate Location/Type
04:05PM 28.4167 -81.8655 270° West  Level FlightAware Approximate
04:06PM 28.4167 -82.0069 270° West  Level FlightAware Approximate
04:06PM 28.3490 -81.6100 270° West 301 346 10,100  Level FlightAware
04:06PM 28.3630 -81.6550 289° West 324 373 10,800 1,800 Climbing FlightAware
04:07PM 28.3820 -81.7190 289° West 332 382 12,200 2,220 Climbing FlightAware
04:08PM 28.4010 -81.7870 288° West 339 390 13,800 2,100 Climbing FlightAware
04:08PM 28.4210 -81.8540 289° West 349 402 15,000 1,980 Climbing FlightAware
04:09PM 28.4430 -81.9210 290° West 357 411 16,300 1,800 Climbing FlightAware
04:11PM 28.5190 -82.1510 291° West 366 421 20,000 1,620 Climbing FlightAware
04:12PM 28.5460 -82.2240 293° West 375 432 20,900 1,320 Climbing FlightAware
04:12PM 28.5870 -82.2860 307° West 379 436 21,800 1,260 Climbing FlightAware
04:13PM 28.6300 -82.3510 307° West 385 443 22,600 1,260 Climbing FlightAware
04:14PM 28.6710 -82.4150 306° West 392 451 23,500 1,080 Climbing FlightAware
04:14PM 28.7170 -82.4870 306° West 410 472 24,100 540 Climbing FlightAware
04:15PM 28.7640 -82.5600 306° West 437 503 24,300 420 Climbing FlightAware
04:16PM 28.8170 -82.6420 306° West 455 524 24,700 900 Climbing FlightAware
04:17PM 28.9450 -82.7330 328° Northwest 466 536 26,100 780 Climbing FlightAware
04:18PM 29.0160 -82.7760 332° Northwest 466 536 26,200 660 Climbing FlightAware
04:18PM 29.0990 -82.8250 333° Northwest 470 541 27,000 1,200 Climbing FlightAware
04:20PM 29.2350 -82.9040 333° Northwest 485 558 28,400 1,020 Climbing FlightAware
04:21PM 29.3770 -82.9890 332° Northwest 475 547 29,500 600 Climbing FlightAware
04:21PM 29.4430 -83.0290 332° Northwest 475 547 29,500  Level FlightAware
04:22PM 29.5090 -83.0690 332° Northwest 475 547 29,500 1,740 Level FlightAware
04:23PM 29.6900 -83.1740 333° Northwest 469 540 33,000 1,800 Climbing FlightAware
04:24PM 29.7610 -83.2170 332° Northwest 468 539 33,100 900 Climbing FlightAware
04:25PM 29.8150 -83.2480 334° Northwest 456 525 34,000 720 Climbing FlightAware
04:25PM 29.9050 -83.3020 333° Northwest 451 519 34,000  Level FlightAware
04:26PM 29.9840 -83.3490 333° Northwest 453 521 34,000  Level FlightAware
04:27PM 30.0610 -83.3960 332° Northwest 453 521 34,000  Level FlightAware
04:28PM 30.1610 -83.4550 333° Northwest 453 521 34,000  Level FlightAware
04:28PM 30.2230 -83.4930 332° Northwest 453 521 34,000  Level FlightAware
04:29PM 30.2910 -83.5330 333° Northwest 460 529 34,000  Level FlightAware
04:29PM 30.3670 -83.6020 322° Northwest 451 519 34,000  Level FlightAware
04:30PM 30.4210 -83.6640 315° West 451 519 34,000 600 Level FlightAware
04:31PM 30.5120 -83.7650 316° Northwest 448 516 35,000 1,020 Climbing FlightAware
04:31PM 30.5460 -83.8030 316° Northwest 445 512 35,400 720 Climbing FlightAware
04:32PM 30.6090 -83.8850 312° West 444 511 35,900 480 Climbing FlightAware
04:33PM 30.6450 -83.9310 312° West 444 511 36,000 60 Climbing FlightAware
04:34PM 30.7210 -84.0320 311° West 444 511 36,000  Level FlightAware
04:34PM 30.7590 -84.0830 311° West 445 512 36,000  Level FlightAware
04:35PM 30.8200 -84.1630 312° West 444 511 36,000  Level FlightAware
04:35PM 30.8730 -84.2340 311° West 443 510 36,000  Level FlightAware
04:36PM 30.9630 -84.3230 320° Northwest 441 507 36,000  Level FlightAware
04:37PM 31.0320 -84.3740 328° Northwest 441 507 36,000  Level FlightAware
04:38PM 31.1120 -84.4260 331° Northwest 441 507 36,000  Level FlightAware
04:39PM 31.1860 -84.4680 334° Northwest 441 507 36,000  Level FlightAware
04:39PM 31.2480 -84.5040 334° Northwest 441 507 36,000  Level FlightAware
04:40PM 31.1540 -84.4520 155° Southeast 442 509 36,000  Level FlightAware
04:41PM 31.1690 -84.4620 330° Northwest 442 509 36,000  Level FlightAware
04:41PM 31.2310 -84.5000 332° Northwest 442 509 36,000  Level FlightAware
04:42PM 31.2770 -84.5290 332° Northwest 442 509 36,000  Level FlightAware
04:43PM 31.3530 -84.5760 332° Northwest 442 509 36,000  Level FlightAware
04:43PM 31.3990 -84.6050 332° Northwest 442 509 36,000  Level FlightAware
04:44PM 31.4610 -84.6430 332° Northwest 442 509 36,000  Level FlightAware
04:44PM 31.5070 -84.6720 332° Northwest 442 509 36,000  Level FlightAware
04:45PM 31.5680 -84.7100 332° Northwest 442 509 36,000  Level FlightAware
04:46PM 31.6300 -84.7490 332° Northwest 442 509 36,000  Level FlightAware
04:46PM 31.6910 -84.7870 332° Northwest 442 509 36,000  Level FlightAware
04:47PM 31.7520 -84.8250 332° Northwest 442 509 36,000  Level FlightAware
04:47PM 31.7980 -84.8540 332° Northwest 442 509 36,000 -180 Level FlightAware
04:50PM 32.5090 -85.2520 335° Northwest 449 517 35,500 -300 Descending FlightAware
04:51PM 32.5640 -85.2860 332° Northwest 451 519 35,000 -540 Descending FlightAware
04:51PM 32.6180 -85.3180 333° Northwest 455 524 35,000  Level FlightAware
04:52PM 32.7000 -85.3690 332° Northwest 460 529 35,000 -300 Level FlightAware
04:53PM 32.7770 -85.4160 333° Northwest 457 526 34,600 -720 Descending FlightAware
04:54PM 32.8660 -85.4700 333° Northwest 455 524 34,000 -480 Descending FlightAware
04:54PM 32.9400 -85.5160 332° Northwest 456 525 34,000  Level FlightAware
04:55PM 33.0140 -85.5620 332° Northwest 462 532 34,000  Level FlightAware
04:56PM 33.1100 -85.6210 333° Northwest 461 531 34,000  Level FlightAware
04:56PM 33.1760 -85.6620 333° Northwest 462 532 34,000  Level FlightAware
04:57PM 33.2630 -85.7160 333° Northwest 462 532 34,000  Level FlightAware
04:58PM 33.3190 -85.7510 332° Northwest 462 532 34,000  Level FlightAware
04:58PM 33.3940 -85.7980 332° Northwest 461 531 34,000  Level FlightAware
04:59PM 33.4320 -85.8210 333° Northwest 461 531 34,000  Level FlightAware
04:59PM 33.5080 -85.8690 332° Northwest 458 527 34,000  Level FlightAware
05:00PM 33.5960 -85.9240 333° Northwest 456 525 34,000  Level FlightAware
05:01PM 33.6970 -85.9870 333° Northwest 454 522 34,000  Level FlightAware
05:01PM 33.7590 -86.0270 332° Northwest 453 521 34,000  Level FlightAware
05:02PM 33.8490 -86.0840 332° Northwest 453 521 34,000  Level FlightAware
05:03PM 33.9307 -86.1350 333° Northwest 454 522 34,000  Level FlightAware ADS-B
05:03PM 33.9908 -86.1731 332° Northwest 454 522 34,000  Level FlightAware ADS-B
05:04PM 34.0380 -86.2050 331° Northwest 453 521 34,000  Level FlightAware
05:05PM 34.1010 -86.2450 332° Northwest 453 521 34,000  Level FlightAware
05:05PM 34.1751 -86.2905 333° Northwest 458 527 34,000  Level FlightAware ADS-B
05:06PM 34.2358 -86.3294 332° Northwest 460 529 34,000  Level FlightAware ADS-B
05:06PM 34.3021 -86.3718 332° Northwest 461 531 34,000  Level FlightAware ADS-B
05:07PM 34.3602 -86.4092 332° Northwest 461 531 34,000  Level FlightAware ADS-B
05:08PM 34.4550 -86.4700 332° Northwest 462 532 34,000  Level FlightAware
05:09PM 34.5225 -86.5135 332° Northwest 461 531 34,000  Level FlightAware ADS-B
05:10PM 34.6881 -86.6205 332° Northwest 460 529 34,000  Level FlightAware ADS-B
05:10PM 34.7481 -86.6594 332° Northwest 458 527 34,000  Level FlightAware ADS-B
05:11PM 34.8049 -86.6963 332° Northwest 457 526 34,000  Level FlightAware ADS-B
05:11PM 34.8802 -86.7454 332° Northwest 457 526 34,000  Level FlightAware ADS-B
05:12PM 34.9543 -86.7937 332° Northwest 458 527 34,000  Level FlightAware ADS-B
05:13PM 35.0187 -86.8358 332° Northwest 459 528 34,000  Level FlightAware ADS-B
05:13PM 35.0994 -86.8886 332° Northwest 460 529 34,000  Level FlightAware ADS-B
05:14PM 35.1572 -86.9265 332° Northwest 460 529 34,000  Level FlightAware ADS-B
05:15PM 35.2560 -86.9910 332° Northwest 459 528 34,000  Level FlightAware
05:15PM 35.2754 -87.0044 331° Northwest 459 528 34,000  Level FlightAware ADS-B
05:15PM 35.3329 -87.0421 332° Northwest 458 527 34,000  Level FlightAware ADS-B
05:16PM 35.4170 -87.0980 332° Northwest 457 526 34,000  Level FlightAware
05:17PM 35.4990 -87.1520 332° Northwest 455 524 34,000  Level FlightAware
05:18PM 35.5840 -87.2080 332° Northwest 456 525 34,000  Level FlightAware
05:18PM 35.6500 -87.2530 331° Northwest 456 525 34,000  Level FlightAware
05:19PM 35.7140 -87.2950 332° Northwest 456 525 34,000  Level FlightAware
05:20PM 35.8000 -87.3530 331° Northwest 457 526 34,000  Level FlightAware
05:20PM 35.8760 -87.4030 332° Northwest 459 528 34,000  Level FlightAware
05:21PM 35.9570 -87.4580 331° Northwest 460 529 34,000  Level FlightAware
05:22PM 36.0320 -87.5080 332° Northwest 461 531 34,000  Level FlightAware
05:22PM 36.1200 -87.5670 332° Northwest 461 531 34,000  Level FlightAware
05:23PM 36.1940 -87.6170 331° Northwest 463 533 34,000  Level FlightAware
05:24PM 36.2690 -87.6680 331° Northwest 464 534 34,000  Level FlightAware
05:24PM 36.3330 -87.7110 332° Northwest 464 534 34,000  Level FlightAware
05:25PM 36.4280 -87.7760 331° Northwest 465 535 34,000  Level FlightAware
05:26PM 36.5040 -87.8280 331° Northwest 468 539 34,000  Level FlightAware
05:27PM 36.5830 -87.8820 331° Northwest 468 539 34,000  Level FlightAware
05:28PM 36.6940 -87.9580 331° Northwest 471 542 34,000  Level FlightAware
05:28PM 36.8010 -88.0320 331° Northwest 473 544 34,000  Level FlightAware
05:29PM 36.8870 -88.0900 332° Northwest 474 545 34,000  Level FlightAware
05:30PM 36.9550 -88.1370 331° Northwest 474 545 34,000  Level FlightAware
05:31PM 37.0480 -88.2020 331° Northwest 473 544 34,000  Level FlightAware
05:31PM 37.1160 -88.2490 331° Northwest 473 544 34,000  Level FlightAware
05:32PM 37.1650 -88.2830 331° Northwest 473 544 34,000  Level FlightAware
05:32PM 37.2620 -88.3500 331° Northwest 473 544 34,000  Level FlightAware
05:33PM 37.3220 -88.3920 331° Northwest 474 545 34,000  Level FlightAware
05:34PM 37.4340 -88.4390 342° North 482 555 34,000  Level FlightAware
05:35PM 37.5190 -88.4640 347° North 483 556 34,000  Level FlightAware
05:35PM 37.6140 -88.4990 344° North 481 554 34,000  Level FlightAware
05:36PM 37.6970 -88.5520 333° Northwest 479 551 34,000  Level FlightAware
05:37PM 37.7750 -88.6090 330° Northwest 479 551 34,000  Level FlightAware
05:37PM 37.8590 -88.6710 330° Northwest 479 551 34,000  Level FlightAware
05:38PM 37.9160 -88.7120 330° Northwest 478 550 34,000  Level FlightAware
05:39PM 37.9920 -88.7680 330° Northwest 479 551 34,000  Level FlightAware
05:39PM 38.0690 -88.8250 330° Northwest 479 551 34,000  Level FlightAware
05:40PM 38.1380 -88.8750 330° Northwest 478 550 34,000  Level FlightAware
05:40PM 38.2110 -88.9280 330° Northwest 476 548 34,000  Level FlightAware
05:41PM 38.3060 -89.0000 329° Northwest 476 548 34,000  Level FlightAware
05:42PM 38.3700 -89.0490 329° Northwest 476 548 34,000  Level FlightAware
05:43PM 38.4990 -89.1410 331° Northwest 476 548 34,000  Level FlightAware
05:44PM 38.5730 -89.1960 330° Northwest 478 550 34,000  Level FlightAware
05:45PM 38.6830 -89.2790 330° Northwest 479 551 34,000  Level FlightAware
05:45PM 38.7480 -89.3290 329° Northwest 479 551 34,000  Level FlightAware
05:46PM 38.8420 -89.3960 331° Northwest 478 550 34,000  Level FlightAware
05:47PM 38.9240 -89.4580 330° Northwest 478 550 34,000  Level FlightAware
05:47PM 39.0070 -89.5200 330° Northwest 477 549 34,000  Level FlightAware
05:48PM 39.0700 -89.5680 329° Northwest 477 549 34,000  Level FlightAware
05:49PM 39.1460 -89.6250 330° Northwest 475 547 34,000  Level FlightAware
05:49PM 39.2220 -89.6840 329° Northwest 475 547 34,000  Level FlightAware
05:50PM 39.3290 -89.7640 330° Northwest 475 547 34,000  Level FlightAware
05:51PM 39.4070 -89.8230 330° Northwest 475 547 34,000  Level FlightAware
05:52PM 39.4760 -89.8760 329° Northwest 475 547 34,000  Level FlightAware
05:52PM 39.5490 -89.9320 329° Northwest 475 547 34,000  Level FlightAware
05:53PM 39.6330 -89.9960 330° Northwest 475 547 34,000  Level FlightAware
05:54PM 39.7240 -90.0660 329° Northwest 477 549 34,000  Level FlightAware
05:54PM 39.7850 -90.1130 329° Northwest 478 550 34,000  Level FlightAware
05:55PM 39.8610 -90.1720 329° Northwest 479 551 34,000  Level FlightAware
05:56PM 39.9470 -90.2380 330° Northwest 479 551 34,000  Level FlightAware
05:56PM 40.0050 -90.2830 329° Northwest 481 554 34,000  Level FlightAware
05:57PM 40.0840 -90.3460 329° Northwest 481 554 34,000  Level FlightAware
05:58PM 40.1880 -90.4270 329° Northwest 480 552 34,000  Level FlightAware
05:58PM 40.2580 -90.4820 329° Northwest 480 552 34,000  Level FlightAware
05:59PM 40.3290 -90.5370 329° Northwest 482 555 34,000  Level FlightAware
06:00PM 40.4240 -90.6120 329° Northwest 483 556 34,000  Level FlightAware
06:00PM 40.4980 -90.6710 329° Northwest 485 558 34,000  Level FlightAware
06:01PM 40.5890 -90.7430 329° Northwest 486 559 34,000  Level FlightAware
06:02PM 40.6600 -90.8000 329° Northwest 486 559 34,000  Level FlightAware
06:03PM 40.7350 -90.8590 329° Northwest 487 560 34,000  Level FlightAware
06:03PM 40.8270 -90.9330 329° Northwest 488 562 34,000  Level FlightAware
06:04PM 40.9310 -91.0170 329° Northwest 490 564 34,000  Level FlightAware
06:05PM 41.0230 -91.0910 329° Northwest 492 566 34,000  Level FlightAware
06:06PM 41.1150 -91.1670 328° Northwest 492 566 34,000  Level FlightAware
06:07PM 41.2100 -91.2430 329° Northwest 492 566 34,000  Level FlightAware
06:07PM 41.2950 -91.3130 328° Northwest 491 565 34,000  Level FlightAware
06:08PM 41.3720 -91.3760 328° Northwest 490 564 34,000 -180 Level FlightAware
06:09PM 41.4510 -91.4410 328° Northwest 487 560 33,800 -660 Descending FlightAware
06:09PM 41.5350 -91.5100 328° Northwest 478 550 33,100 -1,080 Descending FlightAware
06:10PM 41.5850 -91.5520 328° Northwest 482 555 32,500 -480 Descending FlightAware
06:11PM 41.6640 -91.6180 328° Northwest 482 555 32,500 -1,080 Level FlightAware
06:11PM 41.7690 -91.7050 328° Northwest 481 554 30,800 -1,680 Descending FlightAware
06:12PM 41.8490 -91.7710 328° Northwest 482 555 30,000 -840 Descending FlightAware
06:13PM 41.9170 -91.8300 327° Northwest 482 555 29,700 -1,080 Descending FlightAware
06:14PM 42.0070 -91.9040 329° Northwest 479 551 28,500 -1,020 Descending FlightAware
06:14PM 42.1050 -91.9880 328° Northwest 479 551 28,000 -300 Descending FlightAware
06:15PM 42.1920 -92.0600 328° Northwest 479 551 28,000  Level FlightAware
06:16PM 42.2680 -92.1250 328° Northwest 476 548 28,000  Level FlightAware
06:17PM 42.3440 -92.1900 328° Northwest 476 548 28,000  Level FlightAware
06:17PM 42.4280 -92.2610 328° Northwest 474 545 28,000  Level FlightAware
06:18PM 42.5010 -92.3240 328° Northwest 473 544 28,000  Level FlightAware
06:19PM 42.5860 -92.3980 327° Northwest 472 543 28,000  Level FlightAware
06:19PM 42.6590 -92.4630 327° Northwest 470 541 28,000  Level FlightAware
06:20PM 42.7320 -92.5320 325° Northwest 471 542 28,000  Level FlightAware
06:21PM 42.8110 -92.6050 326° Northwest 473 544 28,000  Level FlightAware
06:21PM 42.8830 -92.6720 326° Northwest 474 545 28,000  Level FlightAware
06:22PM 42.9650 -92.7480 326° Northwest 474 545 28,000  Level FlightAware
06:23PM 43.0400 -92.8180 326° Northwest 474 545 28,000  Level FlightAware
06:24PM 43.1190 -92.8920 326° Northwest 474 545 28,000 -300 Level FlightAware
06:24PM 43.1910 -92.9590 326° Northwest 471 542 27,600 -1,140 Descending FlightAware
06:25PM 43.2630 -93.0270 325° Northwest 470 541 26,500 -1,740 Descending FlightAware
06:26PM 43.3440 -93.1040 325° Northwest 461 531 25,200 -1,740 Descending FlightAware
06:26PM 43.4140 -93.1700 326° Northwest 447 514 24,100 -900 Descending FlightAware
06:27PM 43.4820 -93.2350 325° Northwest 443 510 24,000 -900 Descending FlightAware
06:28PM 43.5620 -93.2900 334° Northwest 456 525 22,900 -2,100 Descending FlightAware
06:28PM 43.6440 -93.2900 360° North 459 528 21,100 -2,700 Descending FlightAware
06:29PM 43.7390 -93.2800 North 444 511 19,100 -2,700 Descending FlightAware
06:30PM 43.8250 -93.2710 North 432 497 17,300 -2,580 Descending FlightAware
06:31PM 43.9110 -93.2630 North 418 481 15,500 -2,520 Descending FlightAware
06:31PM 43.9890 -93.2550 North 409 471 13,800 -2,340 Descending FlightAware
06:32PM 44.0630 -93.2480 North 404 465 12,400 -1,860 Descending FlightAware
06:33PM 44.1480 -93.2400 North 383 441 11,200 -1,440 Descending FlightAware
06:33PM 44.2180 -93.2330 North 374 430 10,400 -660 Descending FlightAware
06:34PM 44.2940 -93.2250 North 386 444 10,300 -120 Descending FlightAware
06:35PM 44.3650 -93.2180 North 380 437 10,300  Level FlightAware
06:35PM 44.4360 -93.2110 North 379 436 10,300  Level FlightAware
06:36PM 44.5170 -93.2020 North 378 435 10,300  Level FlightAware
06:37PM 44.5860 -93.1950 North 381 438 10,300  Level FlightAware
06:37PM 44.6390 -93.1920 North 365 420 10,300  Level FlightAware
06:38PM 44.6990 -93.2150 345° North 308 354 10,300 -600 Level FlightAware
06:39PM 44.7380 -93.2390 336° Northwest 295 339 9,600 -1,620 Descending FlightAware
06:39PM 44.7540 -93.2500 334° Northwest 294 338 9,100 -1,680 Descending FlightAware
06:39PM 44.7860 -93.2700 336° Northwest 283 326 8,500 -900 Descending FlightAware
06:40PM 44.8210 -93.2920 336° Northwest 262 302 8,300 -300 Descending FlightAware
06:40PM 44.8360 -93.3030 333° Northwest 251 289 8,300 240 Level FlightAware
06:40PM 44.8440 -93.3140 316° Northwest 239 275 8,400 -780 Climbing FlightAware
06:41PM 44.8650 -93.3510 309° West 237 273 7,800 -1,440 Descending FlightAware
06:41PM 44.8840 -93.3850 308° West 219 252 7,000 -1,680 Descending FlightAware
06:42PM 44.9000 -93.4140 308° West 210 242 6,300 -1,980 Descending FlightAware
06:42PM 44.9200 -93.4450 312° West 222 255 5,200 -2,040 Descending FlightAware
06:42PM 44.9340 -93.4510 343° North 233 268 4,800 -1,200 Descending FlightAware
06:43PM 44.9580 -93.4340 27° Northeast 234 269 4,400 -900 Descending FlightAware
06:43PM 44.9640 -93.4140 67° East 229 264 4,200 -900 Descending FlightAware
06:43PM 44.9660 -93.3850 84° East 220 253 3,900 -1,140 Descending FlightAware
06:44PM 44.9530 -93.3430 114° Southeast 176 203 3,200 -1,200 Descending FlightAware
06:44PM 44.9410 -93.3160 122° Southeast 153 176 2,600 -1,140 Descending FlightAware
06:45PM 44.9320 -93.2950 121° Southeast 152 175 2,200 -900 Descending FlightAware
06:45PM 44.9220 -93.2710 120° Southeast 149 171 1,800 -840 Descending FlightAware
06:46PM 44.9110 -93.2450 121° Southeast 150 173 1,400 -840 Descending FlightAware